首页
METAR-TAF:

METAR-TAF

机场 :

戈尔甘, 伊朗

纬度: 36-49N, 经度: 054-28E, 海拔: 155米

当前天气观测

该预报发布于23分钟前的11:00 UTC
静风
温度 7°C
湿度 81%
气压 1024 hPa
能見度: 3000
散云层高于1500英尺
散云层高于2500英尺
阴天层高于7000英尺
雨, 轻雾

METAR: OING 191100Z 00000KT 3000 RA BR SCT015 SCT025 OVC070 07/04 Q1024 NOSIG

时间: 14:53 (11:23 UTC)


TAF: 丢失

超过4000个机场的气象观测和天气预报(METAR&TAF报告)。

可查询的气象台以黄色和红色小点在地图上表示。

将鼠标移到小点上方,可查看气象台名称。

然后点击查看天气观测和预报。

如需切换地图:点击带黑十字的绿色按钮放大地图;点击带横线的绿色按钮缩小地图;或者点击绿色箭头查看邻近地区的地图。


METAR-TAF: